sensor_id;sensor_type;location;lat;lon;timestamp;pressure;altitude;pressure_sealevel;temperature;humidity
73821;BME280;62150;43.582;1.456;2023-04-01T06:24:12;100247.63;;;13.15;100.00
73821;BME280;62150;43.582;1.456;2023-04-01T06:26:48;100255.34;;;13.16;100.00
73821;BME280;62150;43.582;1.456;2023-04-01T06:32:35;100260.00;;;13.08;100.00
73821;BME280;62150;43.582;1.456;2023-04-01T06:35:31;100259.03;;;12.92;100.00
73821;BME280;62150;43.582;1.456;2023-04-01T06:38:22;100255.81;;;13.59;100.00
73821;BME280;62150;43.582;1.456;2023-04-01T06:41:23;100263.09;;;13.33;100.00
73821;BME280;62150;43.582;1.456;2023-04-01T06:44:04;100253.38;;;13.38;100.00
73821;BME280;62150;43.582;1.456;2023-04-01T06:46:40;100254.00;;;13.61;100.00
73821;BME280;62150;43.582;1.456;2023-04-01T06:49:26;100265.09;;;13.46;100.00
73821;BME280;62150;43.582;1.456;2023-04-01T06:52:02;100264.41;;;13.42;100.00
73821;BME280;62150;43.582;1.456;2023-04-01T06:54:38;100256.03;;;13.71;100.00
73821;BME280;62150;43.582;1.456;2023-04-01T06:57:18;100257.31;;;13.28;100.00
73821;BME280;62150;43.582;1.456;2023-04-01T06:59:48;100263.84;;;13.35;100.00
73821;BME280;62150;43.582;1.456;2023-04-01T07:02:23;100255.53;;;13.48;100.00
73821;BME280;62150;43.582;1.456;2023-04-01T07:04:54;100260.06;;;13.77;100.00
73821;BME280;62150;43.582;1.456;2023-04-01T07:07:29;100252.88;;;13.99;100.00
73821;BME280;62150;43.582;1.456;2023-04-01T07:10:04;100256.91;;;13.88;100.00
73821;BME280;62150;43.582;1.456;2023-04-01T07:12:39;100259.44;;;13.55;100.00
73821;BME280;62150;43.582;1.456;2023-04-01T07:15:16;100261.03;;;13.92;100.00
73821;BME280;62150;43.582;1.456;2023-04-01T07:17:47;100255.75;;;14.11;100.00
73821;BME280;62150;43.582;1.456;2023-04-01T07:20:22;100256.31;;;14.00;100.00
73821;BME280;62150;43.582;1.456;2023-04-01T07:22:54;100264.78;;;13.69;100.00
73821;BME280;62150;43.582;1.456;2023-04-01T07:25:27;100258.97;;;13.98;100.00
73821;BME280;62150;43.582;1.456;2023-04-01T07:28:02;100251.22;;;13.98;100.00
73821;BME280;62150;43.582;1.456;2023-04-01T07:30:44;100255.44;;;13.84;100.00
73821;BME280;62150;43.582;1.456;2023-04-01T07:33:19;100254.41;;;13.86;100.00
73821;BME280;62150;43.582;1.456;2023-04-01T07:35:53;100246.06;;;13.98;100.00
73821;BME280;62150;43.582;1.456;2023-04-01T07:38:28;100250.00;;;13.88;100.00
73821;BME280;62150;43.582;1.456;2023-04-01T07:41:04;100242.88;;;14.26;100.00
73821;BME280;62150;43.582;1.456;2023-04-01T07:43:43;100250.44;;;14.14;100.00
73821;BME280;62150;43.582;1.456;2023-04-01T07:46:21;100242.09;;;14.57;100.00
73821;BME280;62150;43.582;1.456;2023-04-01T07:48:55;100223.59;;;14.81;100.00
73821;BME280;62150;43.582;1.456;2023-04-01T07:51:28;100235.94;;;14.44;100.00
73821;BME280;62150;43.582;1.456;2023-04-01T07:54:03;100240.09;;;14.62;100.00
73821;BME280;62150;43.582;1.456;2023-04-01T07:56:39;100235.53;;;14.67;100.00
73821;BME280;62150;43.582;1.456;2023-04-01T07:59:18;100227.50;;;14.56;100.00
73821;BME280;62150;43.582;1.456;2023-04-01T08:01:57;100217.59;;;14.80;100.00
73821;BME280;62150;43.582;1.456;2023-04-01T08:04:40;100227.34;;;14.26;100.00
73821;BME280;62150;43.582;1.456;2023-04-01T08:07:15;100223.34;;;14.69;100.00
73821;BME280;62150;43.582;1.456;2023-04-01T08:09:48;100223.50;;;14.82;100.00
73821;BME280;62150;43.582;1.456;2023-04-01T08:12:32;100228.44;;;14.22;100.00
73821;BME280;62150;43.582;1.456;2023-04-01T08:15:12;100211.47;;;14.97;100.00
73821;BME280;62150;43.582;1.456;2023-04-01T08:17:49;100208.13;;;15.11;100.00
73821;BME280;62150;43.582;1.456;2023-04-01T08:20:25;100188.31;;;15.39;100.00
73821;BME280;62150;43.582;1.456;2023-04-01T08:23:00;100209.03;;;14.94;100.00
73821;BME280;62150;43.582;1.456;2023-04-01T08:25:39;100196.22;;;15.52;100.00
73821;BME280;62150;43.582;1.456;2023-04-01T08:28:15;100192.25;;;15.01;100.00
73821;BME280;62150;43.582;1.456;2023-04-01T08:30:47;100187.50;;;14.93;100.00
73821;BME280;62150;43.582;1.456;2023-04-01T08:33:19;100193.97;;;15.76;100.00
73821;BME280;62150;43.582;1.456;2023-04-01T08:35:54;100191.31;;;15.48;100.00
73821;BME280;62150;43.582;1.456;2023-04-01T08:38:26;100173.47;;;15.13;100.00
73821;BME280;62150;43.582;1.456;2023-04-01T08:41:01;100176.63;;;15.62;100.00
73821;BME280;62150;43.582;1.456;2023-04-01T08:43:59;100183.38;;;15.65;100.00
73821;BME280;62150;43.582;1.456;2023-04-01T08:46:56;100184.63;;;16.16;100.00
73821;BME280;62150;43.582;1.456;2023-04-01T08:52:35;100199.75;;;15.21;100.00
73821;BME280;62150;43.582;1.456;2023-04-01T08:55:22;100176.94;;;15.42;100.00
73821;BME280;62150;43.582;1.456;2023-04-01T08:58:06;100188.22;;;15.71;100.00
73821;BME280;62150;43.582;1.456;2023-04-01T09:00:45;100176.38;;;15.95;100.00
73821;BME280;62150;43.582;1.456;2023-04-01T09:03:31;100205.22;;;15.61;100.00
73821;BME280;62150;43.582;1.456;2023-04-01T09:06:25;100162.41;;;15.98;100.00
73821;BME280;62150;43.582;1.456;2023-04-01T09:09:21;100172.81;;;15.54;100.00
73821;BME280;62150;43.582;1.456;2023-04-01T09:12:15;100169.81;;;15.75;99.83
73821;BME280;62150;43.582;1.456;2023-04-01T09:15:12;100156.59;;;15.80;97.56
73821;BME280;62150;43.582;1.456;2023-04-01T09:20:47;100149.34;;;16.28;92.90
73821;BME280;62150;43.582;1.456;2023-04-01T09:23:38;100148.50;;;16.13;88.59
73821;BME280;62150;43.582;1.456;2023-04-01T09:29:16;100156.59;;;16.35;85.21
73821;BME280;62150;43.582;1.456;2023-04-01T09:32:07;100151.25;;;16.65;84.78
73821;BME280;62150;43.582;1.456;2023-04-01T09:35:08;100152.13;;;15.96;84.49
73821;BME280;62150;43.582;1.456;2023-04-01T09:37:53;100148.78;;;16.08;85.15
73821;BME280;62150;43.582;1.456;2023-04-01T09:40:31;100141.56;;;15.99;83.53
73821;BME280;62150;43.582;1.456;2023-04-01T09:43:25;100146.03;;;16.53;82.80
73821;BME280;62150;43.582;1.456;2023-04-01T09:46:19;100135.31;;;15.89;83.41
73821;BME280;62150;43.582;1.456;2023-04-01T09:52:28;100123.88;;;16.20;79.13
73821;BME280;62150;43.582;1.456;2023-04-01T09:55:12;100130.22;;;16.70;77.36
73821;BME280;62150;43.582;1.456;2023-04-01T10:01:20;100115.69;;;16.67;73.18
73821;BME280;62150;43.582;1.456;2023-04-01T10:10:10;100101.50;;;16.73;70.03
73821;BME280;62150;43.582;1.456;2023-04-01T10:16:15;100078.84;;;17.27;62.75
73821;BME280;62150;43.582;1.456;2023-04-01T10:19:22;100109.56;;;16.68;64.12
73821;BME280;62150;43.582;1.456;2023-04-01T10:22:23;100074.66;;;17.37;59.95
73821;BME280;62150;43.582;1.456;2023-04-01T10:28:36;100070.97;;;18.27;54.68
73821;BME280;62150;43.582;1.456;2023-04-01T10:31:26;100079.31;;;17.96;58.00
73821;BME280;62150;43.582;1.456;2023-04-01T10:37:47;100086.69;;;18.26;58.87
73821;BME280;62150;43.582;1.456;2023-04-01T10:40:51;100077.06;;;17.40;64.54
73821;BME280;62150;43.582;1.456;2023-04-01T10:43:57;100085.16;;;17.74;62.78
73821;BME280;62150;43.582;1.456;2023-04-01T10:56:24;100076.84;;;17.43;56.67
73821;BME280;62150;43.582;1.456;2023-04-01T11:05:42;100059.59;;;17.42;61.99
73821;BME280;62150;43.582;1.456;2023-04-01T11:08:53;100068.84;;;17.34;65.17
73821;BME280;62150;43.582;1.456;2023-04-01T11:15:11;100092.78;;;16.06;97.90
73821;BME280;62150;43.582;1.456;2023-04-01T11:18:06;100100.28;;;16.11;100.00
73821;BME280;62150;43.582;1.456;2023-04-01T11:23:54;100100.28;;;16.11;100.00
73821;BME280;62150;43.582;1.456;2023-04-01T11:26:45;100105.31;;;15.42;100.00
73821;BME280;62150;43.582;1.456;2023-04-01T11:32:44;100126.63;;;14.88;100.00
73821;BME280;62150;43.582;1.456;2023-04-01T11:38:33;100111.06;;;15.03;100.00
73821;BME280;62150;43.582;1.456;2023-04-01T11:41:18;100108.59;;;15.30;100.00
73821;BME280;62150;43.582;1.456;2023-04-01T11:44:01;100079.13;;;15.33;100.00
73821;BME280;62150;43.582;1.456;2023-04-01T11:46:39;100092.41;;;15.13;100.00
73821;BME280;62150;43.582;1.456;2023-04-01T11:49:25;100087.31;;;16.25;100.00
73821;BME280;62150;43.582;1.456;2023-04-01T11:52:09;100088.91;;;15.14;100.00
73821;BME280;62150;43.582;1.456;2023-04-01T11:55:02;100087.84;;;15.74;100.00
73821;BME280;62150;43.582;1.456;2023-04-01T12:00:55;100097.75;;;15.82;100.00
73821;BME280;62150;43.582;1.456;2023-04-01T12:03:51;100088.00;;;15.43;100.00
73821;BME280;62150;43.582;1.456;2023-04-01T12:06:30;100082.56;;;15.90;100.00
73821;BME280;62150;43.582;1.456;2023-04-01T12:09:07;100088.03;;;14.99;100.00
73821;BME280;62150;43.582;1.456;2023-04-01T12:11:44;100093.13;;;15.73;100.00
73821;BME280;62150;43.582;1.456;2023-04-01T12:14:19;100103.59;;;15.27;100.00
73821;BME280;62150;43.582;1.456;2023-04-01T12:16:59;100095.56;;;15.18;100.00
73821;BME280;62150;43.582;1.456;2023-04-01T12:19:39;100084.84;;;15.38;100.00
73821;BME280;62150;43.582;1.456;2023-04-01T12:25:14;100084.16;;;16.20;100.00
73821;BME280;62150;43.582;1.456;2023-04-01T12:27:58;100092.06;;;15.33;100.00
73821;BME280;62150;43.582;1.456;2023-04-01T12:30:50;100093.31;;;15.70;100.00
73821;BME280;62150;43.582;1.456;2023-04-01T12:36:30;100096.22;;;15.35;100.00
73821;BME280;62150;43.582;1.456;2023-04-01T12:39:22;100095.59;;;14.88;100.00
73821;BME280;62150;43.582;1.456;2023-04-01T12:42:05;100081.78;;;15.31;100.00
73821;BME280;62150;43.582;1.456;2023-04-01T12:44:49;100086.88;;;15.19;100.00
73821;BME280;62150;43.582;1.456;2023-04-01T12:47:31;100078.66;;;15.12;100.00
73821;BME280;62150;43.582;1.456;2023-04-01T12:53:22;100094.28;;;14.81;100.00
73821;BME280;62150;43.582;1.456;2023-04-01T12:55:56;100090.47;;;14.72;100.00
73821;BME280;62150;43.582;1.456;2023-04-01T12:58:58;100071.81;;;15.11;100.00
73821;BME280;62150;43.582;1.456;2023-04-01T13:01:41;100062.44;;;14.64;100.00
73821;BME280;62150;43.582;1.456;2023-04-01T13:04:34;100066.31;;;15.01;100.00
73821;BME280;62150;43.582;1.456;2023-04-01T13:10:04;100064.13;;;15.09;100.00
73821;BME280;62150;43.582;1.456;2023-04-01T13:12:53;100081.88;;;14.56;100.00
73821;BME280;62150;43.582;1.456;2023-04-01T13:15:28;100107.19;;;14.19;100.00
73821;BME280;62150;43.582;1.456;2023-04-01T13:18:07;100117.44;;;13.22;100.00
73821;BME280;62150;43.582;1.456;2023-04-01T13:20:44;100093.59;;;13.51;100.00
73821;BME280;62150;43.582;1.456;2023-04-01T13:23:24;100080.78;;;13.50;100.00
73821;BME280;62150;43.582;1.456;2023-04-01T13:26:05;100077.22;;;13.68;100.00
73821;BME280;62150;43.582;1.456;2023-04-01T13:28:38;100081.84;;;13.46;100.00
73821;BME280;62150;43.582;1.456;2023-04-01T13:31:13;100070.22;;;14.33;100.00
73821;BME280;62150;43.582;1.456;2023-04-01T13:33:50;100044.97;;;14.54;100.00
73821;BME280;62150;43.582;1.456;2023-04-01T13:36:28;100042.09;;;13.81;100.00
73821;BME280;62150;43.582;1.456;2023-04-01T13:39:19;100041.22;;;14.28;100.00
73821;BME280;62150;43.582;1.456;2023-04-01T13:41:58;100050.50;;;13.69;100.00
73821;BME280;62150;43.582;1.456;2023-04-01T13:44:34;100035.13;;;14.29;100.00
73821;BME280;62150;43.582;1.456;2023-04-01T13:47:21;100029.69;;;13.72;100.00
73821;BME280;62150;43.582;1.456;2023-04-01T13:53:11;100036.25;;;13.29;100.00
73821;BME280;62150;43.582;1.456;2023-04-01T13:55:54;100027.50;;;13.49;100.00
73821;BME280;62150;43.582;1.456;2023-04-01T13:58:48;100038.75;;;13.95;100.00
73821;BME280;62150;43.582;1.456;2023-04-01T14:01:25;100029.81;;;13.20;100.00
73821;BME280;62150;43.582;1.456;2023-04-01T14:07:19;100015.19;;;13.85;100.00
73821;BME280;62150;43.582;1.456;2023-04-01T14:09:59;100015.44;;;14.12;100.00
73821;BME280;62150;43.582;1.456;2023-04-01T14:12:39;100001.34;;;13.55;100.00
73821;BME280;62150;43.582;1.456;2023-04-01T14:18:18;99995.78;;;14.24;100.00
73821;BME280;62150;43.582;1.456;2023-04-01T14:20:53;99997.19;;;13.68;100.00
73821;BME280;62150;43.582;1.456;2023-04-01T14:23:42;100003.69;;;13.75;100.00
73821;BME280;62150;43.582;1.456;2023-04-01T14:29:27;100008.41;;;13.35;100.00
73821;BME280;62150;43.582;1.456;2023-04-01T14:32:07;100011.81;;;13.52;100.00
73821;BME280;62150;43.582;1.456;2023-04-01T14:34:53;100012.03;;;13.80;100.00
73821;BME280;62150;43.582;1.456;2023-04-01T14:37:39;100009.16;;;13.53;100.00
73821;BME280;62150;43.582;1.456;2023-04-01T14:40:34;100019.66;;;13.00;100.00
73821;BME280;62150;43.582;1.456;2023-04-01T14:43:47;100027.13;;;13.39;100.00
73821;BME280;62150;43.582;1.456;2023-04-01T14:46:47;100036.34;;;13.10;100.00
73821;BME280;62150;43.582;1.456;2023-04-01T14:49:22;100053.44;;;12.95;100.00
73821;BME280;62150;43.582;1.456;2023-04-01T14:51:53;100071.41;;;12.62;100.00
73821;BME280;62150;43.582;1.456;2023-04-01T14:54:30;100067.53;;;12.88;100.00
73821;BME280;62150;43.582;1.456;2023-04-01T14:57:08;100090.97;;;12.84;100.00
73821;BME280;62150;43.582;1.456;2023-04-01T14:59:40;100096.34;;;12.96;100.00
73821;BME280;62150;43.582;1.456;2023-04-01T15:05:16;100187.03;;;10.92;100.00
73821;BME280;62150;43.582;1.456;2023-04-01T15:08:05;100163.00;;;10.93;100.00
73821;BME280;62150;43.582;1.456;2023-04-01T15:10:53;100160.19;;;10.99;100.00
73821;BME280;62150;43.582;1.456;2023-04-01T15:13:37;100153.69;;;10.68;100.00
73821;BME280;62150;43.582;1.456;2023-04-01T15:16:19;100151.91;;;10.70;100.00
73821;BME280;62150;43.582;1.456;2023-04-01T15:18:58;100163.13;;;10.90;100.00
73821;BME280;62150;43.582;1.456;2023-04-01T15:21:56;100146.91;;;10.88;100.00
73821;BME280;62150;43.582;1.456;2023-04-01T15:24:39;100136.63;;;10.67;100.00
73821;BME280;62150;43.582;1.456;2023-04-01T15:27:25;100114.09;;;10.94;100.00
73821;BME280;62150;43.582;1.456;2023-04-01T15:30:24;100096.53;;;11.45;100.00
73821;BME280;62150;43.582;1.456;2023-04-01T15:33:23;100092.38;;;11.22;100.00
73821;BME280;62150;43.582;1.456;2023-04-01T15:36:01;100082.88;;;11.63;100.00
73821;BME280;62150;43.582;1.456;2023-04-01T15:38:36;100094.25;;;11.96;100.00
73821;BME280;62150;43.582;1.456;2023-04-01T15:41:14;100085.72;;;11.57;100.00
73821;BME280;62150;43.582;1.456;2023-04-01T15:43:43;100053.94;;;11.58;100.00
73821;BME280;62150;43.582;1.456;2023-04-01T15:49:20;100016.53;;;12.07;100.00
73821;BME280;62150;43.582;1.456;2023-04-01T15:52:02;100035.84;;;12.16;100.00
73821;BME280;62150;43.582;1.456;2023-04-01T15:55:00;100035.97;;;13.00;100.00
73821;BME280;62150;43.582;1.456;2023-04-01T15:57:44;100027.50;;;13.16;100.00
73821;BME280;62150;43.582;1.456;2023-04-01T16:00:27;100018.00;;;12.99;100.00
73821;BME280;62150;43.582;1.456;2023-04-01T16:03:27;100018.31;;;13.10;100.00
73821;BME280;62150;43.582;1.456;2023-04-01T16:06:09;100024.91;;;12.98;100.00
73821;BME280;62150;43.582;1.456;2023-04-01T16:09:02;100034.06;;;13.21;100.00
73821;BME280;62150;43.582;1.456;2023-04-01T16:11:43;100038.72;;;13.48;100.00
73821;BME280;62150;43.582;1.456;2023-04-01T16:14:26;100032.81;;;12.78;100.00
73821;BME280;62150;43.582;1.456;2023-04-01T16:17:05;100029.69;;;12.54;100.00
73821;BME280;62150;43.582;1.456;2023-04-01T16:19:51;100038.28;;;12.72;100.00
73821;BME280;62150;43.582;1.456;2023-04-01T16:22:23;100026.00;;;12.06;100.00
73821;BME280;62150;43.582;1.456;2023-04-01T16:25:01;100031.97;;;12.60;100.00
73821;BME280;62150;43.582;1.456;2023-04-01T16:27:35;100038.63;;;12.99;100.00
73821;BME280;62150;43.582;1.456;2023-04-01T16:30:26;100050.28;;;13.40;100.00
73821;BME280;62150;43.582;1.456;2023-04-01T16:33:02;100045.91;;;13.74;100.00
73821;BME280;62150;43.582;1.456;2023-04-01T16:35:40;100061.53;;;12.53;100.00
73821;BME280;62150;43.582;1.456;2023-04-01T16:38:15;100059.25;;;12.47;100.00
73821;BME280;62150;43.582;1.456;2023-04-01T16:40:50;100077.81;;;12.18;100.00
73821;BME280;62150;43.582;1.456;2023-04-01T16:43:27;100085.19;;;12.44;100.00
73821;BME280;62150;43.582;1.456;2023-04-01T16:46:32;100085.13;;;12.27;100.00
73821;BME280;62150;43.582;1.456;2023-04-01T16:49:25;100076.25;;;12.68;100.00
73821;BME280;62150;43.582;1.456;2023-04-01T16:52:04;100090.78;;;11.97;100.00
73821;BME280;62150;43.582;1.456;2023-04-01T16:54:43;100078.25;;;11.90;100.00
73821;BME280;62150;43.582;1.456;2023-04-01T16:57:19;100091.47;;;12.56;100.00
73821;BME280;62150;43.582;1.456;2023-04-01T16:59:56;100086.47;;;11.98;100.00
73821;BME280;62150;43.582;1.456;2023-04-01T17:02:31;100096.94;;;12.84;100.00
73821;BME280;62150;43.582;1.456;2023-04-01T17:05:03;100096.88;;;12.68;100.00
73821;BME280;62150;43.582;1.456;2023-04-01T17:07:40;100102.59;;;12.39;100.00
73821;BME280;62150;43.582;1.456;2023-04-01T17:10:23;100114.22;;;12.29;100.00
73821;BME280;62150;43.582;1.456;2023-04-01T17:13:15;100102.03;;;11.76;100.00
73821;BME280;62150;43.582;1.456;2023-04-01T17:15:54;100104.72;;;12.48;100.00
73821;BME280;62150;43.582;1.456;2023-04-01T17:18:38;100105.72;;;12.63;100.00
73821;BME280;62150;43.582;1.456;2023-04-01T17:21:15;100114.78;;;12.89;100.00
73821;BME280;62150;43.582;1.456;2023-04-01T17:23:48;100106.00;;;12.75;100.00
73821;BME280;62150;43.582;1.456;2023-04-01T17:26:24;100112.53;;;12.28;100.00
73821;BME280;62150;43.582;1.456;2023-04-01T17:28:59;100108.81;;;13.23;100.00
73821;BME280;62150;43.582;1.456;2023-04-01T17:31:41;100104.47;;;12.71;100.00
73821;BME280;62150;43.582;1.456;2023-04-01T17:34:42;100103.84;;;12.84;100.00
73821;BME280;62150;43.582;1.456;2023-04-01T17:37:32;100115.00;;;12.48;100.00
73821;BME280;62150;43.582;1.456;2023-04-01T17:40:19;100109.72;;;12.51;100.00
73821;BME280;62150;43.582;1.456;2023-04-01T17:42:57;100111.75;;;12.08;100.00
73821;BME280;62150;43.582;1.456;2023-04-01T17:45:32;100107.41;;;11.90;100.00
73821;BME280;62150;43.582;1.456;2023-04-01T17:48:13;100119.03;;;11.99;100.00
73821;BME280;62150;43.582;1.456;2023-04-01T17:51:00;100099.34;;;11.98;100.00
73821;BME280;62150;43.582;1.456;2023-04-01T17:53:36;100089.31;;;11.92;100.00
73821;BME280;62150;43.582;1.456;2023-04-01T17:56:14;100100.56;;;11.50;100.00
73821;BME280;62150;43.582;1.456;2023-04-01T17:58:55;100108.69;;;12.00;100.00
73821;BME280;62150;43.582;1.456;2023-04-01T18:01:35;100115.50;;;11.62;100.00
73821;BME280;62150;43.582;1.456;2023-04-01T18:04:36;100128.63;;;11.95;100.00
73821;BME280;62150;43.582;1.456;2023-04-01T18:07:30;100139.78;;;11.36;100.00
73821;BME280;62150;43.582;1.456;2023-04-01T18:10:17;100120.03;;;11.76;100.00
73821;BME280;62150;43.582;1.456;2023-04-01T18:13:08;100137.78;;;11.82;100.00
73821;BME280;62150;43.582;1.456;2023-04-01T18:15:49;100160.84;;;11.65;100.00
73821;BME280;62150;43.582;1.456;2023-04-01T18:18:35;100167.06;;;10.98;100.00
73821;BME280;62150;43.582;1.456;2023-04-01T18:21:13;100149.28;;;11.34;100.00
73821;BME280;62150;43.582;1.456;2023-04-01T18:23:47;100152.38;;;10.80;100.00
73821;BME280;62150;43.582;1.456;2023-04-01T18:26:21;100161.47;;;11.09;100.00
73821;BME280;62150;43.582;1.456;2023-04-01T18:28:54;100158.50;;;10.76;100.00
73821;BME280;62150;43.582;1.456;2023-04-01T18:31:32;100158.44;;;11.41;100.00
73821;BME280;62150;43.582;1.456;2023-04-01T18:34:06;100174.09;;;11.56;100.00
73821;BME280;62150;43.582;1.456;2023-04-01T18:36:40;100174.91;;;10.95;100.00
73821;BME280;62150;43.582;1.456;2023-04-01T18:39:16;100184.28;;;10.96;100.00
73821;BME280;62150;43.582;1.456;2023-04-01T18:41:53;100181.00;;;10.93;100.00
73821;BME280;62150;43.582;1.456;2023-04-01T18:44:42;100177.75;;;10.88;100.00
73821;BME280;62150;43.582;1.456;2023-04-01T18:47:21;100172.19;;;10.77;100.00
73821;BME280;62150;43.582;1.456;2023-04-01T18:49:55;100170.84;;;11.10;100.00
73821;BME280;62150;43.582;1.456;2023-04-01T18:52:30;100176.84;;;11.11;100.00
73821;BME280;62150;43.582;1.456;2023-04-01T18:55:30;100175.81;;;10.72;100.00
73821;BME280;62150;43.582;1.456;2023-04-01T19:01:11;100174.97;;;10.72;100.00
73821;BME280;62150;43.582;1.456;2023-04-01T19:03:47;100171.31;;;10.78;100.00
73821;BME280;62150;43.582;1.456;2023-04-01T19:06:21;100182.41;;;10.78;100.00
73821;BME280;62150;43.582;1.456;2023-04-01T19:08:52;100181.75;;;10.51;100.00
73821;BME280;62150;43.582;1.456;2023-04-01T19:11:30;100182.44;;;10.56;100.00
73821;BME280;62150;43.582;1.456;2023-04-01T19:14:09;100182.69;;;10.72;100.00
73821;BME280;62150;43.582;1.456;2023-04-01T19:16:49;100176.88;;;10.67;100.00
73821;BME280;62150;43.582;1.456;2023-04-01T19:19:38;100189.91;;;10.84;100.00
73821;BME280;62150;43.582;1.456;2023-04-01T19:22:22;100196.19;;;10.99;100.00
73821;BME280;62150;43.582;1.456;2023-04-01T19:25:10;100192.47;;;10.62;100.00
73821;BME280;62150;43.582;1.456;2023-04-01T19:27:48;100198.38;;;11.08;100.00
73821;BME280;62150;43.582;1.456;2023-04-01T19:30:42;100198.97;;;10.93;100.00
73821;BME280;62150;43.582;1.456;2023-04-01T19:33:25;100203.19;;;10.73;100.00
73821;BME280;62150;43.582;1.456;2023-04-01T19:36:03;100204.19;;;10.69;100.00
73821;BME280;62150;43.582;1.456;2023-04-01T19:38:38;100196.38;;;10.49;100.00
73821;BME280;62150;43.582;1.456;2023-04-01T19:41:19;100196.50;;;10.69;100.00
73821;BME280;62150;43.582;1.456;2023-04-01T19:43:58;100195.28;;;10.78;100.00
73821;BME280;62150;43.582;1.456;2023-04-01T19:46:35;100191.56;;;10.85;100.00
73821;BME280;62150;43.582;1.456;2023-04-01T19:49:23;100192.84;;;11.17;100.00
73821;BME280;62150;43.582;1.456;2023-04-01T19:52:00;100194.03;;;10.66;100.00
73821;BME280;62150;43.582;1.456;2023-04-01T19:54:39;100187.44;;;10.81;100.00
73821;BME280;62150;43.582;1.456;2023-04-01T19:57:17;100196.00;;;11.03;100.00
73821;BME280;62150;43.582;1.456;2023-04-01T19:59:55;100201.13;;;10.82;100.00
73821;BME280;62150;43.582;1.456;2023-04-01T20:02:54;100199.63;;;10.54;100.00
73821;BME280;62150;43.582;1.456;2023-04-01T20:05:46;100199.50;;;10.35;100.00
73821;BME280;62150;43.582;1.456;2023-04-01T20:08:22;100204.34;;;10.20;100.00
73821;BME280;62150;43.582;1.456;2023-04-01T20:11:04;100203.34;;;10.69;100.00
73821;BME280;62150;43.582;1.456;2023-04-01T20:13:42;100200.34;;;10.80;100.00
73821;BME280;62150;43.582;1.456;2023-04-01T20:16:13;100212.81;;;10.68;100.00
73821;BME280;62150;43.582;1.456;2023-04-01T20:18:47;100211.91;;;10.69;100.00
73821;BME280;62150;43.582;1.456;2023-04-01T20:21:27;100211.66;;;10.75;100.00
73821;BME280;62150;43.582;1.456;2023-04-01T20:24:01;100211.88;;;10.48;100.00
73821;BME280;62150;43.582;1.456;2023-04-01T20:26:32;100208.78;;;10.61;100.00
73821;BME280;62150;43.582;1.456;2023-04-01T20:29:12;100210.69;;;10.78;100.00
73821;BME280;62150;43.582;1.456;2023-04-01T20:31:44;100215.81;;;10.56;100.00
73821;BME280;62150;43.582;1.456;2023-04-01T20:37:32;100209.03;;;10.32;100.00
73821;BME280;62150;43.582;1.456;2023-04-01T20:40:26;100202.34;;;10.28;100.00
73821;BME280;62150;43.582;1.456;2023-04-01T20:46:01;100212.22;;;10.14;100.00
73821;BME280;62150;43.582;1.456;2023-04-01T20:48:42;100211.06;;;10.69;100.00
73821;BME280;62150;43.582;1.456;2023-04-01T20:51:15;100218.00;;;10.67;100.00
73821;BME280;62150;43.582;1.456;2023-04-01T20:53:50;100224.63;;;10.02;100.00
73821;BME280;62150;43.582;1.456;2023-04-01T20:56:38;100212.88;;;10.44;100.00
73821;BME280;62150;43.582;1.456;2023-04-01T20:59:37;100208.78;;;10.15;100.00
73821;BME280;62150;43.582;1.456;2023-04-01T21:02:21;100210.97;;;10.49;100.00
73821;BME280;62150;43.582;1.456;2023-04-01T21:05:14;100216.94;;;10.49;100.00
73821;BME280;62150;43.582;1.456;2023-04-01T21:07:53;100207.00;;;10.63;100.00
73821;BME280;62150;43.582;1.456;2023-04-01T21:10:34;100217.81;;;10.26;100.00
73821;BME280;62150;43.582;1.456;2023-04-01T21:13:15;100228.88;;;10.73;100.00
73821;BME280;62150;43.582;1.456;2023-04-01T21:15:55;100218.53;;;10.97;100.00
73821;BME280;62150;43.582;1.456;2023-04-01T21:18:52;100216.31;;;10.66;100.00
73821;BME280;62150;43.582;1.456;2023-04-01T21:21:44;100216.63;;;10.35;100.00
73821;BME280;62150;43.582;1.456;2023-04-01T21:24:53;100211.91;;;10.46;100.00
73821;BME280;62150;43.582;1.456;2023-04-01T21:27:42;100210.66;;;10.34;100.00
73821;BME280;62150;43.582;1.456;2023-04-01T21:30:24;100217.38;;;10.38;100.00
73821;BME280;62150;43.582;1.456;2023-04-01T21:33:06;100217.38;;;10.82;100.00
73821;BME280;62150;43.582;1.456;2023-04-01T21:35:41;100207.88;;;10.84;100.00
73821;BME280;62150;43.582;1.456;2023-04-01T21:38:33;100222.38;;;10.17;100.00
73821;BME280;62150;43.582;1.456;2023-04-01T21:41:21;100216.94;;;10.72;100.00
73821;BME280;62150;43.582;1.456;2023-04-01T21:44:05;100220.63;;;10.42;100.00
73821;BME280;62150;43.582;1.456;2023-04-01T21:46:51;100211.34;;;10.61;100.00
73821;BME280;62150;43.582;1.456;2023-04-01T21:50:00;100217.38;;;10.38;100.00
73821;BME280;62150;43.582;1.456;2023-04-01T22:01:52;100226.44;;;10.47;100.00
73821;BME280;62150;43.582;1.456;2023-04-01T22:04:50;100219.28;;;10.55;100.00
73821;BME280;62150;43.582;1.456;2023-04-01T22:07:23;100215.91;;;10.31;100.00
